PWSweather.com
Personal Weather Stations
Station Observations
EA5BZ
Nuevo Altabix, ElcheES

Nuevo AltabixElcheES

Lat: 38.276, Lon: -0.671

Elevation: 0

Station Type: Oregon Scientific WMR-300

http://meteoelche.es

High Low Average
Temperature 60.8°F16.0°C 46.6°F8.1°C 52.9°F11.6°C
Dew Point 48.6°F9.2°C 39.6°F4.2°C 44.2°F6.8°C
Winds 10.1 mph 16.3 kmh 2.9 mph 4.7 kmh 6.0 mph WSW9.7 kmh WSW
Wind Gusts 17.4 mph28.0 kmh 2.9 mph4.7 kmh 9.0 mph14.5 kmh
Humidity 81% 60% 72%
Pressure 30.40 in1029.5 mb 30.20 in1022.7 mb -
Precipitation 0.00 in0.0 mm - -
Hour Temp Dew Point Humidity Winds Wind Gusts Pressure Precip Precip Rate Daily Precip Total
12:00 AM 49.3°F9.6°C 40.7°F4.8°C 72% 6.5 mph W10.5 kmh W 8.7 mph14.0 kmh 30.40 in1029.5 mb 0.00 in0.0 mm 0.00 in0.0 mm 0.00 in0.0 mm
12:05 AM 49.3°F9.6°C 40.9°F4.9°C 73% 6.5 mph W10.5 kmh W 8.7 mph14.0 kmh 30.40 in1029.5 mb 0.00 in0.0 mm 0.00 in0.0 mm 0.00 in0.0 mm
12:10 AM 49.3°F9.6°C 41.0°F5.0°C 73% 6.5 mph W10.5 kmh W 8.7 mph14.0 kmh 30.40 in1029.5 mb 0.00 in0.0 mm 0.00 in0.0 mm 0.00 in0.0 mm
12:15 AM 49.3°F9.6°C 41.0°F5.0°C 73% 6.7 mph W10.8 kmh W 9.2 mph14.8 kmh 30.40 in1029.5 mb 0.00 in0.0 mm 0.00 in0.0 mm 0.00 in0.0 mm
12:20 AM 49.3°F9.6°C 41.0°F5.0°C 73% 7.4 mph W11.9 kmh W 9.2 mph14.8 kmh 30.40 in1029.5 mb 0.00 in0.0 mm 0.00 in0.0 mm 0.00 in0.0 mm
12:25 AM 49.4°F9.7°C 40.8°F4.9°C 72% 7.4 mph W11.9 kmh W 8.7 mph14.0 kmh 30.39 in1029.1 mb 0.00 in0.0 mm 0.00 in0.0 mm 0.00 in0.0 mm
12:30 AM 49.3°F9.6°C 40.6°F4.8°C 72% 7.4 mph W11.9 kmh W 9.6 mph15.4 kmh 30.39 in1029.1 mb 0.00 in0.0 mm 0.00 in0.0 mm 0.00 in0.0 mm
12:35 AM 49.3°F9.6°C 40.7°F4.8°C 72% 7.3 mph W11.7 kmh W 9.6 mph15.4 kmh 30.39 in1029.1 mb 0.00 in0.0 mm 0.00 in0.0 mm 0.00 in0.0 mm
12:40 AM 49.3°F9.6°C 40.9°F4.9°C 73% 6.9 mph W11.1 kmh W 8.7 mph14.0 kmh 30.39 in1029.1 mb 0.00 in0.0 mm 0.00 in0.0 mm 0.00 in0.0 mm
12:45 AM 49.3°F9.6°C 40.6°F4.8°C 72% 6.9 mph W11.1 kmh W 8.5 mph13.7 kmh 30.39 in1029.1 mb 0.00 in0.0 mm 0.00 in0.0 mm 0.00 in0.0 mm
12:50 AM 49.3°F9.6°C 41.0°F5.0°C 73% 6.9 mph W11.1 kmh W 6.9 mph11.1 kmh 30.39 in1029.1 mb 0.00 in0.0 mm 0.00 in0.0 mm 0.00 in0.0 mm
12:55 AM 49.3°F9.6°C 41.0°F5.0°C 73% 6.5 mph W10.5 kmh W 6.9 mph11.1 kmh 30.39 in1029.1 mb 0.00 in0.0 mm 0.00 in0.0 mm 0.00 in0.0 mm
01:00 AM 49.3°F9.6°C 41.0°F5.0°C 73% 5.1 mph WNW8.2 kmh WNW 6.5 mph10.5 kmh 30.39 in1029.1 mb 0.00 in0.0 mm 0.00 in0.0 mm 0.00 in0.0 mm
01:05 AM 49.3°F9.6°C 41.0°F5.0°C 73% 5.0 mph WNW8.0 kmh WNW 6.9 mph11.1 kmh 30.39 in1029.1 mb 0.00 in0.0 mm 0.00 in0.0 mm 0.00 in0.0 mm
01:10 AM 49.3°F9.6°C 41.0°F5.0°C 73% 4.7 mph WNW7.6 kmh WNW 8.1 mph13.0 kmh 30.38 in1028.8 mb 0.00 in0.0 mm 0.00 in0.0 mm 0.00 in0.0 mm
01:15 AM 49.0°F9.4°C 40.7°F4.8°C 73% 5.1 mph WNW8.2 kmh WNW 8.1 mph13.0 kmh 30.38 in1028.8 mb 0.00 in0.0 mm 0.00 in0.0 mm 0.00 in0.0 mm
01:20 AM 48.8°F9.3°C 40.6°F4.8°C 73% 6.3 mph W10.1 kmh W 9.2 mph14.8 kmh 30.38 in1028.8 mb 0.00 in0.0 mm 0.00 in0.0 mm 0.00 in0.0 mm
01:25 AM 48.6°F9.2°C 40.3°F4.6°C 73% 6.4 mph W10.3 kmh W 8.7 mph14.0 kmh 30.38 in1028.8 mb 0.00 in0.0 mm 0.00 in0.0 mm 0.00 in0.0 mm
01:30 AM 48.4°F9.1°C 40.2°F4.6°C 73% 6.9 mph W11.1 kmh W 7.6 mph12.2 kmh 30.38 in1028.8 mb 0.00 in0.0 mm 0.00 in0.0 mm 0.00 in0.0 mm
01:35 AM 48.4°F9.1°C 40.5°F4.7°C 74% 6.8 mph W10.9 kmh W 7.4 mph11.9 kmh 30.38 in1028.8 mb 0.00 in0.0 mm 0.00 in0.0 mm 0.00 in0.0 mm
01:40 AM 48.4°F9.1°C 40.5°F4.7°C 74% 6.3 mph W10.1 kmh W 8.1 mph13.0 kmh 30.38 in1028.8 mb 0.00 in0.0 mm 0.00 in0.0 mm 0.00 in0.0 mm
01:45 AM 48.4°F9.1°C 40.5°F4.7°C 74% 6.3 mph W10.1 kmh W 8.5 mph13.7 kmh 30.38 in1028.8 mb 0.00 in0.0 mm 0.00 in0.0 mm 0.00 in0.0 mm
01:50 AM 48.3°F9.1°C 40.4°F4.7°C 74% 6.5 mph W10.5 kmh W 6.9 mph11.1 kmh 30.38 in1028.8 mb 0.00 in0.0 mm 0.00 in0.0 mm 0.00 in0.0 mm
01:55 AM 48.2°F9.0°C 40.3°F4.6°C 74% 6.3 mph W10.1 kmh W 8.1 mph13.0 kmh 30.37 in1028.4 mb 0.00 in0.0 mm 0.00 in0.0 mm 0.00 in0.0 mm
02:00 AM 48.0°F8.9°C 39.8°F4.3°C 73% 5.8 mph W9.3 kmh W 8.1 mph13.0 kmh 30.37 in1028.4 mb 0.00 in0.0 mm 0.00 in0.0 mm 0.00 in0.0 mm
02:05 AM 48.0°F8.9°C 39.7°F4.3°C 73% 6.0 mph W9.7 kmh W 9.2 mph14.8 kmh 30.37 in1028.4 mb 0.00 in0.0 mm 0.00 in0.0 mm 0.00 in0.0 mm
02:10 AM 47.8°F8.8°C 39.8°F4.3°C 74% 6.5 mph W10.5 kmh W 8.7 mph14.0 kmh 30.37 in1028.4 mb 0.00 in0.0 mm 0.00 in0.0 mm 0.00 in0.0 mm
02:15 AM 47.7°F8.7°C 39.8°F4.3°C 74% 6.6 mph W10.6 kmh W 9.2 mph14.8 kmh 30.37 in1028.4 mb 0.00 in0.0 mm 0.00 in0.0 mm 0.00 in0.0 mm
02:20 AM 47.6°F8.7°C 39.7°F4.3°C 74% 6.9 mph W11.1 kmh W 9.6 mph15.4 kmh 30.37 in1028.4 mb 0.00 in0.0 mm 0.00 in0.0 mm 0.00 in0.0 mm
02:25 AM 47.5°F8.6°C 39.6°F4.2°C 74% 7.1 mph W11.4 kmh W 10.3 mph16.6 kmh 30.37 in1028.4 mb 0.00 in0.0 mm 0.00 in0.0 mm 0.00 in0.0 mm
02:30 AM 47.3°F8.5°C 39.8°F4.3°C 75% 7.4 mph W11.9 kmh W 12.3 mph19.8 kmh 30.37 in1028.4 mb 0.00 in0.0 mm 0.00 in0.0 mm 0.00 in0.0 mm
02:35 AM 47.4°F8.6°C 39.9°F4.4°C 75% 7.9 mph W12.7 kmh W 12.3 mph19.8 kmh 30.37 in1028.4 mb 0.00 in0.0 mm 0.00 in0.0 mm 0.00 in0.0 mm
02:40 AM 47.5°F8.6°C 40.0°F4.4°C 75% 9.2 mph W14.8 kmh W 10.3 mph16.6 kmh 30.37 in1028.4 mb 0.00 in0.0 mm 0.00 in0.0 mm 0.00 in0.0 mm
02:45 AM 47.7°F8.7°C 40.2°F4.6°C 75% 8.9 mph W14.3 kmh W 9.6 mph15.4 kmh 30.38 in1028.8 mb 0.00 in0.0 mm 0.00 in0.0 mm 0.00 in0.0 mm
02:50 AM 47.9°F8.8°C 40.3°F4.6°C 75% 8.1 mph W13.0 kmh W 9.6 mph15.4 kmh 30.38 in1028.8 mb 0.00 in0.0 mm 0.00 in0.0 mm 0.00 in0.0 mm
02:55 AM 48.1°F8.9°C 40.5°F4.7°C 75% 7.9 mph W12.7 kmh W 10.7 mph17.2 kmh 30.37 in1028.4 mb 0.00 in0.0 mm 0.00 in0.0 mm 0.00 in0.0 mm
03:00 AM 48.3°F9.1°C 40.5°F4.7°C 74% 7.4 mph W11.9 kmh W 10.3 mph16.6 kmh 30.37 in1028.4 mb 0.00 in0.0 mm 0.00 in0.0 mm 0.00 in0.0 mm
03:05 AM 48.4°F9.1°C 40.5°F4.7°C 74% 7.4 mph W11.9 kmh W 8.7 mph14.0 kmh 30.37 in1028.4 mb 0.00 in0.0 mm 0.00 in0.0 mm 0.00 in0.0 mm
03:10 AM 48.4°F9.1°C 40.5°F4.7°C 74% 7.6 mph W12.2 kmh W 8.7 mph14.0 kmh 30.36 in1028.1 mb 0.00 in0.0 mm 0.00 in0.0 mm 0.00 in0.0 mm
03:15 AM 48.4°F9.1°C 40.5°F4.7°C 74% 7.4 mph W11.9 kmh W 9.6 mph15.4 kmh 30.36 in1028.1 mb 0.00 in0.0 mm 0.00 in0.0 mm 0.00 in0.0 mm
03:20 AM 48.5°F9.2°C 40.6°F4.8°C 74% 6.9 mph W11.1 kmh W 10.3 mph16.6 kmh 30.36 in1028.1 mb 0.00 in0.0 mm 0.00 in0.0 mm 0.00 in0.0 mm
03:25 AM 48.4°F9.1°C 40.5°F4.7°C 74% 7.2 mph W11.6 kmh W 11.4 mph18.3 kmh 30.36 in1028.1 mb 0.00 in0.0 mm 0.00 in0.0 mm 0.00 in0.0 mm
03:30 AM 48.4°F9.1°C 40.5°F4.7°C 74% 8.1 mph W13.0 kmh W 11.9 mph19.2 kmh 30.36 in1028.1 mb 0.00 in0.0 mm 0.00 in0.0 mm 0.00 in0.0 mm
03:35 AM 48.4°F9.1°C 40.5°F4.7°C 74% 8.3 mph W13.4 kmh W 11.4 mph18.3 kmh 30.36 in1028.1 mb 0.00 in0.0 mm 0.00 in0.0 mm 0.00 in0.0 mm
03:40 AM 48.4°F9.1°C 40.5°F4.7°C 74% 9.2 mph W14.8 kmh W 10.3 mph16.6 kmh 30.36 in1028.1 mb 0.00 in0.0 mm 0.00 in0.0 mm 0.00 in0.0 mm
03:45 AM 48.4°F9.1°C 40.5°F4.7°C 74% 9.0 mph W14.5 kmh W 10.7 mph17.2 kmh 30.36 in1028.1 mb 0.00 in0.0 mm 0.00 in0.0 mm 0.00 in0.0 mm
03:50 AM 48.3°F9.1°C 40.4°F4.7°C 74% 8.5 mph W13.7 kmh W 10.1 mph16.3 kmh 30.36 in1028.1 mb 0.00 in0.0 mm 0.00 in0.0 mm 0.00 in0.0 mm
03:55 AM 48.1°F8.9°C 40.3°F4.6°C 74% 8.2 mph W13.2 kmh W 9.6 mph15.4 kmh 30.35 in1027.8 mb 0.00 in0.0 mm 0.00 in0.0 mm 0.00 in0.0 mm
04:00 AM 48.2°F9.0°C 40.6°F4.8°C 75% 7.4 mph W11.9 kmh W 8.7 mph14.0 kmh 30.35 in1027.8 mb 0.00 in0.0 mm 0.00 in0.0 mm 0.00 in0.0 mm
04:05 AM 48.2°F9.0°C 40.7°F4.8°C 75% 7.1 mph W11.4 kmh W 8.5 mph13.7 kmh 30.35 in1027.8 mb 0.00 in0.0 mm 0.00 in0.0 mm 0.00 in0.0 mm
04:10 AM 48.4°F9.1°C 40.8°F4.9°C 75% 6.5 mph W10.5 kmh W 7.4 mph11.9 kmh 30.34 in1027.4 mb 0.00 in0.0 mm 0.00 in0.0 mm 0.00 in0.0 mm
04:15 AM 48.4°F9.1°C 40.8°F4.9°C 75% 6.3 mph W10.1 kmh W 7.6 mph12.2 kmh 30.34 in1027.4 mb 0.00 in0.0 mm 0.00 in0.0 mm 0.00 in0.0 mm
04:20 AM 48.4°F9.1°C 40.7°F4.8°C 75% 5.8 mph W9.3 kmh W 9.2 mph14.8 kmh 30.34 in1027.4 mb 0.00 in0.0 mm 0.00 in0.0 mm 0.00 in0.0 mm
04:25 AM 48.2°F9.0°C 40.3°F4.6°C 74% 6.2 mph W10.0 kmh W 9.2 mph14.8 kmh 30.33 in1027.1 mb 0.00 in0.0 mm 0.00 in0.0 mm 0.00 in0.0 mm
04:30 AM 48.0°F8.9°C 40.5°F4.7°C 75% 7.4 mph W11.9 kmh W 8.5 mph13.7 kmh 30.33 in1027.1 mb 0.00 in0.0 mm 0.00 in0.0 mm 0.00 in0.0 mm
04:35 AM 48.0°F8.9°C 40.5°F4.7°C 75% 7.3 mph W11.7 kmh W 9.2 mph14.8 kmh 30.33 in1027.1 mb 0.00 in0.0 mm 0.00 in0.0 mm 0.00 in0.0 mm
04:40 AM 47.8°F8.8°C 40.3°F4.6°C 75% 6.9 mph W11.1 kmh W 9.6 mph15.4 kmh 30.33 in1027.1 mb 0.00 in0.0 mm 0.00 in0.0 mm 0.00 in0.0 mm
04:45 AM 47.6°F8.7°C 40.1°F4.5°C 75% 7.2 mph W11.6 kmh W 11.2 mph18.0 kmh 30.33 in1027.1 mb 0.00 in0.0 mm 0.00 in0.0 mm 0.00 in0.0 mm
04:50 AM 47.5°F8.6°C 39.9°F4.4°C 75% 8.1 mph W13.0 kmh W 10.7 mph17.2 kmh 30.33 in1027.1 mb 0.00 in0.0 mm 0.00 in0.0 mm 0.00 in0.0 mm
04:55 AM 47.2°F8.4°C 39.8°F4.3°C 75% 8.2 mph W13.2 kmh W 10.7 mph17.2 kmh 30.33 in1027.1 mb 0.00 in0.0 mm 0.00 in0.0 mm 0.00 in0.0 mm
05:00 AM 47.1°F8.4°C 39.9°F4.4°C 76% 8.5 mph W13.7 kmh W 10.7 mph17.2 kmh 30.32 in1026.8 mb 0.00 in0.0 mm 0.00 in0.0 mm 0.00 in0.0 mm
05:05 AM 47.1°F8.4°C 39.9°F4.4°C 76% 8.5 mph W13.7 kmh W 11.4 mph18.3 kmh 30.32 in1026.8 mb 0.00 in0.0 mm 0.00 in0.0 mm 0.00 in0.0 mm
05:10 AM 47.1°F8.4°C 39.9°F4.4°C 76% 8.5 mph W13.7 kmh W 11.4 mph18.3 kmh 30.32 in1026.8 mb 0.00 in0.0 mm 0.00 in0.0 mm 0.00 in0.0 mm
05:15 AM 47.1°F8.4°C 39.9°F4.4°C 76% 8.6 mph W13.8 kmh W 10.3 mph16.6 kmh 30.32 in1026.8 mb 0.00 in0.0 mm 0.00 in0.0 mm 0.00 in0.0 mm
05:20 AM 47.1°F8.4°C 39.9°F4.4°C 76% 8.7 mph W14.0 kmh W 10.3 mph16.6 kmh 30.32 in1026.8 mb 0.00 in0.0 mm 0.00 in0.0 mm 0.00 in0.0 mm
05:25 AM 47.1°F8.4°C 40.1°F4.5°C 76% 8.5 mph W13.7 kmh W 10.7 mph17.2 kmh 30.32 in1026.8 mb 0.00 in0.0 mm 0.00 in0.0 mm 0.00 in0.0 mm
05:30 AM 47.1°F8.4°C 40.3°F4.6°C 77% 8.1 mph W13.0 kmh W 11.4 mph18.3 kmh 30.31 in1026.4 mb 0.00 in0.0 mm 0.00 in0.0 mm 0.00 in0.0 mm
05:35 AM 47.1°F8.4°C 40.3°F4.6°C 77% 8.2 mph W13.2 kmh W 10.7 mph17.2 kmh 30.31 in1026.4 mb 0.00 in0.0 mm 0.00 in0.0 mm 0.00 in0.0 mm
05:40 AM 47.1°F8.4°C 40.3°F4.6°C 77% 8.7 mph W14.0 kmh W 11.2 mph18.0 kmh 30.31 in1026.4 mb 0.00 in0.0 mm 0.00 in0.0 mm 0.00 in0.0 mm
05:45 AM 47.0°F8.3°C 40.1°F4.5°C 77% 8.7 mph W14.0 kmh W 11.9 mph19.2 kmh 30.31 in1026.4 mb 0.00 in0.0 mm 0.00 in0.0 mm 0.00 in0.0 mm
05:50 AM 46.9°F8.3°C 39.9°F4.4°C 76% 8.5 mph W13.7 kmh W 12.5 mph20.1 kmh 30.31 in1026.4 mb 0.00 in0.0 mm 0.00 in0.0 mm 0.00 in0.0 mm
05:55 AM 46.8°F8.2°C 39.9°F4.4°C 77% 8.9 mph W14.3 kmh W 12.5 mph20.1 kmh 30.31 in1026.4 mb 0.00 in0.0 mm 0.00 in0.0 mm 0.00 in0.0 mm
06:00 AM 46.7°F8.2°C 39.9°F4.4°C 77% 10.1 mph W16.3 kmh W 11.9 mph19.2 kmh 30.32 in1026.8 mb 0.00 in0.0 mm 0.00 in0.0 mm 0.00 in0.0 mm
06:05 AM 46.6°F8.1°C 39.9°F4.4°C 77% 9.7 mph W15.6 kmh W 11.9 mph19.2 kmh 30.32 in1026.8 mb 0.00 in0.0 mm 0.00 in0.0 mm 0.00 in0.0 mm
06:10 AM 46.8°F8.2°C 40.3°F4.6°C 78% 8.7 mph W14.0 kmh W 11.2 mph18.0 kmh 30.31 in1026.4 mb 0.00 in0.0 mm 0.00 in0.0 mm 0.00 in0.0 mm
06:15 AM 46.8°F8.2°C 40.3°F4.6°C 78% 8.7 mph W14.0 kmh W 13.0 mph20.9 kmh 30.31 in1026.4 mb 0.00 in0.0 mm 0.00 in0.0 mm 0.00 in0.0 mm
06:20 AM 46.8°F8.2°C 40.3°F4.6°C 78% 8.7 mph W14.0 kmh W 10.7 mph17.2 kmh 30.31 in1026.4 mb 0.00 in0.0 mm 0.00 in0.0 mm 0.00 in0.0 mm
06:25 AM 46.8°F8.2°C 39.9°F4.4°C 77% 8.7 mph W14.0 kmh W 11.2 mph18.0 kmh 30.31 in1026.4 mb 0.00 in0.0 mm 0.00 in0.0 mm 0.00 in0.0 mm
06:30 AM 46.6°F8.1°C 39.8°F4.3°C 77% 8.5 mph W13.7 kmh W 10.7 mph17.2 kmh 30.31 in1026.4 mb 0.00 in0.0 mm 0.00 in0.0 mm 0.00 in0.0 mm
06:35 AM 46.6°F8.1°C 40.1°F4.5°C 78% 8.4 mph W13.5 kmh W 10.7 mph17.2 kmh 30.31 in1026.4 mb 0.00 in0.0 mm 0.00 in0.0 mm 0.00 in0.0 mm
06:40 AM 46.6°F8.1°C 40.1°F4.5°C 78% 8.1 mph W13.0 kmh W 10.7 mph17.2 kmh 30.31 in1026.4 mb 0.00 in0.0 mm 0.00 in0.0 mm 0.00 in0.0 mm
06:45 AM 46.7°F8.2°C 40.5°F4.7°C 79% 7.9 mph W12.7 kmh W 9.6 mph15.4 kmh 30.31 in1026.4 mb 0.00 in0.0 mm 0.00 in0.0 mm 0.00 in0.0 mm
06:50 AM 46.8°F8.2°C 40.6°F4.8°C 79% 7.6 mph W12.2 kmh W 7.6 mph12.2 kmh 30.31 in1026.4 mb 0.00 in0.0 mm 0.00 in0.0 mm 0.00 in0.0 mm
06:55 AM 46.9°F8.3°C 40.7°F4.8°C 79% 7.3 mph W11.7 kmh W 7.6 mph12.2 kmh 30.30 in1026.1 mb 0.00 in0.0 mm 0.00 in0.0 mm 0.00 in0.0 mm
07:00 AM 46.9°F8.3°C 40.8°F4.9°C 79% 6.3 mph W10.1 kmh W 9.2 mph14.8 kmh 30.30 in1026.1 mb 0.00 in0.0 mm 0.00 in0.0 mm 0.00 in0.0 mm
07:05 AM 46.9°F8.3°C 40.8°F4.9°C 79% 6.6 mph W10.6 kmh W 11.2 mph18.0 kmh 30.30 in1026.1 mb 0.00 in0.0 mm 0.00 in0.0 mm 0.00 in0.0 mm
07:10 AM 46.9°F8.3°C 40.8°F4.9°C 79% 7.6 mph W12.2 kmh W 11.2 mph18.0 kmh 30.30 in1026.1 mb 0.00 in0.0 mm 0.00 in0.0 mm 0.00 in0.0 mm
07:15 AM 46.9°F8.3°C 40.8°F4.9°C 79% 7.9 mph W12.7 kmh W 10.3 mph16.6 kmh 30.30 in1026.1 mb 0.00 in0.0 mm 0.00 in0.0 mm 0.00 in0.0 mm
07:20 AM 46.9°F8.3°C 40.8°F4.9°C 79% 8.7 mph W14.0 kmh W 11.4 mph18.3 kmh 30.30 in1026.1 mb 0.00 in0.0 mm 0.00 in0.0 mm 0.00 in0.0 mm
07:25 AM 46.9°F8.3°C 40.8°F4.9°C 79% 8.7 mph W14.0 kmh W 10.7 mph17.2 kmh 30.31 in1026.4 mb 0.00 in0.0 mm 0.00 in0.0 mm 0.00 in0.0 mm
07:30 AM 47.0°F8.3°C 40.9°F4.9°C 79% 8.7 mph W14.0 kmh W 10.1 mph16.3 kmh 30.31 in1026.4 mb 0.00 in0.0 mm 0.00 in0.0 mm 0.00 in0.0 mm
07:35 AM 47.1°F8.4°C 41.0°F5.0°C 79% 8.5 mph W13.7 kmh W 10.3 mph16.6 kmh 30.31 in1026.4 mb 0.00 in0.0 mm 0.00 in0.0 mm 0.00 in0.0 mm
07:40 AM 47.3°F8.5°C 41.1°F5.1°C 79% 8.1 mph W13.0 kmh W 9.6 mph15.4 kmh 30.31 in1026.4 mb 0.00 in0.0 mm 0.00 in0.0 mm 0.00 in0.0 mm
07:45 AM 47.5°F8.6°C 41.3°F5.2°C 79% 7.9 mph W12.7 kmh W 10.3 mph16.6 kmh 30.31 in1026.4 mb 0.00 in0.0 mm 0.00 in0.0 mm 0.00 in0.0 mm
07:50 AM 47.5°F8.6°C 41.3°F5.2°C 79% 7.6 mph W12.2 kmh W 9.2 mph14.8 kmh 30.31 in1026.4 mb 0.00 in0.0 mm 0.00 in0.0 mm 0.00 in0.0 mm
07:55 AM 47.4°F8.6°C 41.0°F5.0°C 78% 7.4 mph W11.9 kmh W 7.6 mph12.2 kmh 30.31 in1026.4 mb 0.00 in0.0 mm 0.00 in0.0 mm 0.00 in0.0 mm
08:00 AM 47.2°F8.4°C 40.7°F4.8°C 78% 6.9 mph W11.1 kmh W 8.5 mph13.7 kmh 30.31 in1026.4 mb 0.00 in0.0 mm 0.00 in0.0 mm 0.00 in0.0 mm
08:05 AM 47.1°F8.4°C 40.9°F4.9°C 79% 6.9 mph W11.1 kmh W 9.6 mph15.4 kmh 30.31 in1026.4 mb 0.00 in0.0 mm 0.00 in0.0 mm 0.00 in0.0 mm
08:10 AM 47.1°F8.4°C 40.9°F4.9°C 79% 6.9 mph W11.1 kmh W 10.1 mph16.3 kmh 30.31 in1026.4 mb 0.00 in0.0 mm 0.00 in0.0 mm 0.00 in0.0 mm
08:15 AM 47.1°F8.4°C 40.9°F4.9°C 79% 7.1 mph W11.4 kmh W 10.7 mph17.2 kmh 30.31 in1026.4 mb 0.00 in0.0 mm 0.00 in0.0 mm 0.00 in0.0 mm
08:20 AM 47.1°F8.4°C 40.9°F4.9°C 79% 7.6 mph W12.2 kmh W 10.7 mph17.2 kmh 30.31 in1026.4 mb 0.00 in0.0 mm 0.00 in0.0 mm 0.00 in0.0 mm
08:25 AM 47.1°F8.4°C 40.9°F4.9°C 79% 8.0 mph W12.9 kmh W 12.5 mph20.1 kmh 30.32 in1026.8 mb 0.00 in0.0 mm 0.00 in0.0 mm 0.00 in0.0 mm
08:30 AM 47.1°F8.4°C 40.9°F4.9°C 79% 9.2 mph W14.8 kmh W 11.2 mph18.0 kmh 30.32 in1026.8 mb 0.00 in0.0 mm 0.00 in0.0 mm 0.00 in0.0 mm
08:35 AM 47.1°F8.4°C 40.9°F4.9°C 79% 9.2 mph W14.8 kmh W 12.3 mph19.8 kmh 30.32 in1026.8 mb 0.00 in0.0 mm 0.00 in0.0 mm 0.00 in0.0 mm
08:40 AM 47.3°F8.5°C 41.1°F5.1°C 79% 9.2 mph W14.8 kmh W 17.0 mph27.4 kmh 30.32 in1026.8 mb 0.00 in0.0 mm 0.00 in0.0 mm 0.00 in0.0 mm
08:45 AM 47.5°F8.6°C 41.3°F5.2°C 79% 9.0 mph W14.5 kmh W 12.5 mph20.1 kmh 30.32 in1026.8 mb 0.00 in0.0 mm 0.00 in0.0 mm 0.00 in0.0 mm
08:50 AM 47.8°F8.8°C 41.4°F5.2°C 78% 8.5 mph W13.7 kmh W 13.4 mph21.6 kmh 30.32 in1026.8 mb 0.00 in0.0 mm 0.00 in0.0 mm 0.00 in0.0 mm
08:55 AM 48.2°F9.0°C 41.4°F5.2°C 77% 8.7 mph W14.0 kmh W 11.4 mph18.3 kmh 30.32 in1026.8 mb 0.00 in0.0 mm 0.00 in0.0 mm 0.00 in0.0 mm
09:00 AM 48.5°F9.2°C 41.5°F5.3°C 77% 9.2 mph W14.8 kmh W 11.2 mph18.0 kmh 30.32 in1026.8 mb 0.00 in0.0 mm 0.00 in0.0 mm 0.00 in0.0 mm
09:05 AM 48.8°F9.3°C 41.5°F5.3°C 76% 9.0 mph W14.5 kmh W 11.9 mph19.2 kmh 30.32 in1026.8 mb 0.00 in0.0 mm 0.00 in0.0 mm 0.00 in0.0 mm
09:10 AM 49.0°F9.4°C 41.4°F5.2°C 75% 8.5 mph W13.7 kmh W 9.6 mph15.4 kmh 30.33 in1027.1 mb 0.00 in0.0 mm 0.00 in0.0 mm 0.00 in0.0 mm
09:15 AM 49.2°F9.6°C 41.6°F5.3°C 75% 8.1 mph W13.0 kmh W 8.5 mph13.7 kmh 30.33 in1027.1 mb 0.00 in0.0 mm 0.00 in0.0 mm 0.00 in0.0 mm
09:20 AM 49.3°F9.6°C 41.4°F5.2°C 74% 6.9 mph W11.1 kmh W 10.7 mph17.2 kmh 30.33 in1027.1 mb 0.00 in0.0 mm 0.00 in0.0 mm 0.00 in0.0 mm
09:25 AM 49.3°F9.6°C 41.4°F5.2°C 74% 7.2 mph W11.6 kmh W 10.7 mph17.2 kmh 30.33 in1027.1 mb 0.00 in0.0 mm 0.00 in0.0 mm 0.00 in0.0 mm
09:30 AM 49.4°F9.7°C 41.8°F5.4°C 75% 8.1 mph W13.0 kmh W 10.3 mph16.6 kmh 30.33 in1027.1 mb 0.00 in0.0 mm 0.00 in0.0 mm 0.00 in0.0 mm
09:35 AM 49.6°F9.8°C 41.9°F5.5°C 75% 7.8 mph W12.6 kmh W 8.5 mph13.7 kmh 30.33 in1027.1 mb 0.00 in0.0 mm 0.00 in0.0 mm 0.00 in0.0 mm
09:40 AM 49.7°F9.8°C 41.8°F5.4°C 74% 6.9 mph W11.1 kmh W 8.1 mph13.0 kmh 30.33 in1027.1 mb 0.00 in0.0 mm 0.00 in0.0 mm 0.00 in0.0 mm
09:45 AM 49.9°F9.9°C 42.0°F5.6°C 74% 6.8 mph W10.9 kmh W 8.7 mph14.0 kmh 30.33 in1027.1 mb 0.00 in0.0 mm 0.00 in0.0 mm 0.00 in0.0 mm
09:50 AM 50.6°F10.3°C 42.9°F6.1°C 75% 6.5 mph W10.5 kmh W 9.2 mph14.8 kmh 30.33 in1027.1 mb 0.00 in0.0 mm 0.00 in0.0 mm 0.00 in0.0 mm
09:55 AM 51.4°F10.8°C 43.2°F6.2°C 73% 6.6 mph W10.6 kmh W 9.2 mph14.8 kmh 30.33 in1027.1 mb 0.00 in0.0 mm 0.00 in0.0 mm 0.00 in0.0 mm
10:00 AM 52.2°F11.2°C 43.7°F6.5°C 73% 6.9 mph W11.1 kmh W 8.1 mph13.0 kmh 30.33 in1027.1 mb 0.00 in0.0 mm 0.00 in0.0 mm 0.00 in0.0 mm
10:05 AM 53.0°F11.7°C 43.9°F6.6°C 71% 6.8 mph W10.9 kmh W 8.5 mph13.7 kmh 30.33 in1027.1 mb 0.00 in0.0 mm 0.00 in0.0 mm 0.00 in0.0 mm
10:10 AM 53.7°F12.1°C 44.1°F6.7°C 70% 6.5 mph W10.5 kmh W 8.5 mph13.7 kmh 30.34 in1027.4 mb 0.00 in0.0 mm 0.00 in0.0 mm 0.00 in0.0 mm
10:15 AM 54.2°F12.3°C 44.2°F6.8°C 69% 6.2 mph W10.0 kmh W 7.4 mph11.9 kmh 30.34 in1027.4 mb 0.00 in0.0 mm 0.00 in0.0 mm 0.00 in0.0 mm
10:20 AM 54.4°F12.4°C 43.8°F6.6°C 67% 5.4 mph WSW8.7 kmh WSW 8.5 mph13.7 kmh 30.34 in1027.4 mb 0.00 in0.0 mm 0.00 in0.0 mm 0.00 in0.0 mm
10:25 AM 54.3°F12.4°C 43.6°F6.4°C 67% 5.5 mph WSW8.9 kmh WSW 8.1 mph13.0 kmh 30.33 in1027.1 mb 0.00 in0.0 mm 0.00 in0.0 mm 0.00 in0.0 mm
10:30 AM 54.2°F12.3°C 43.6°F6.4°C 67% 5.8 mph WSW9.3 kmh WSW 7.6 mph12.2 kmh 30.33 in1027.1 mb 0.00 in0.0 mm 0.00 in0.0 mm 0.00 in0.0 mm
10:35 AM 54.4°F12.4°C 44.0°F6.7°C 68% 5.8 mph WSW9.3 kmh WSW 8.1 mph13.0 kmh 30.33 in1027.1 mb 0.00 in0.0 mm 0.00 in0.0 mm 0.00 in0.0 mm
10:40 AM 54.8°F12.7°C 44.4°F6.9°C 68% 5.8 mph WSW9.3 kmh WSW 6.9 mph11.1 kmh 30.33 in1027.1 mb 0.00 in0.0 mm 0.00 in0.0 mm 0.00 in0.0 mm
10:45 AM 55.4°F13.0°C 44.8°F7.1°C 67% 5.5 mph WSW8.9 kmh WSW 6.5 mph10.5 kmh 30.33 in1027.1 mb 0.00 in0.0 mm 0.00 in0.0 mm 0.00 in0.0 mm
10:50 AM 56.0°F13.3°C 45.0°F7.2°C 66% 4.7 mph WSW7.6 kmh WSW 7.6 mph12.2 kmh 30.33 in1027.1 mb 0.00 in0.0 mm 0.00 in0.0 mm 0.00 in0.0 mm
10:55 AM 56.7°F13.7°C 45.4°F7.4°C 66% 4.6 mph WSW7.4 kmh WSW 7.4 mph11.9 kmh 30.33 in1027.1 mb 0.00 in0.0 mm 0.00 in0.0 mm 0.00 in0.0 mm
11:00 AM 57.3°F14.1°C 45.5°F7.5°C 65% 4.3 mph WSW6.9 kmh WSW 7.4 mph11.9 kmh 30.32 in1026.8 mb 0.00 in0.0 mm 0.00 in0.0 mm 0.00 in0.0 mm
11:05 AM 57.7°F14.3°C 45.6°F7.6°C 64% 4.5 mph WSW7.2 kmh WSW 8.7 mph14.0 kmh 30.32 in1026.8 mb 0.00 in0.0 mm 0.00 in0.0 mm 0.00 in0.0 mm
11:10 AM 58.0°F14.4°C 45.8°F7.7°C 64% 5.4 mph WSW8.7 kmh WSW 6.5 mph10.5 kmh 30.32 in1026.8 mb 0.00 in0.0 mm 0.00 in0.0 mm 0.00 in0.0 mm
11:15 AM 58.4°F14.7°C 45.9°F7.7°C 63% 5.0 mph WSW8.0 kmh WSW 6.5 mph10.5 kmh 30.32 in1026.8 mb 0.00 in0.0 mm 0.00 in0.0 mm 0.00 in0.0 mm
11:20 AM 58.6°F14.8°C 46.0°F7.8°C 63% 4.0 mph WSW6.4 kmh WSW 6.5 mph10.5 kmh 30.32 in1026.8 mb 0.00 in0.0 mm 0.00 in0.0 mm 0.00 in0.0 mm
11:25 AM 58.7°F14.8°C 46.1°F7.8°C 63% 4.2 mph WSW6.8 kmh WSW 6.3 mph10.1 kmh 30.32 in1026.8 mb 0.00 in0.0 mm 0.00 in0.0 mm 0.00 in0.0 mm
11:30 AM 58.8°F14.9°C 46.2°F7.9°C 63% 4.7 mph WSW7.6 kmh WSW 6.5 mph10.5 kmh 30.32 in1026.8 mb 0.00 in0.0 mm 0.00 in0.0 mm 0.00 in0.0 mm
11:35 AM 59.0°F15.0°C 46.4°F8.0°C 63% 4.5 mph SW7.2 kmh SW 7.4 mph11.9 kmh 30.32 in1026.8 mb 0.00 in0.0 mm 0.00 in0.0 mm 0.00 in0.0 mm
11:40 AM 59.2°F15.1°C 46.6°F8.1°C 63% 4.0 mph SW6.4 kmh SW 7.6 mph12.2 kmh 30.31 in1026.4 mb 0.00 in0.0 mm 0.00 in0.0 mm 0.00 in0.0 mm
11:45 AM 59.2°F15.1°C 46.6°F8.1°C 63% 4.5 mph SW7.2 kmh SW 8.1 mph13.0 kmh 30.31 in1026.4 mb 0.00 in0.0 mm 0.00 in0.0 mm 0.00 in0.0 mm
11:50 AM 59.3°F15.2°C 46.7°F8.2°C 63% 5.8 mph WSW9.3 kmh WSW 6.9 mph11.1 kmh 30.31 in1026.4 mb 0.00 in0.0 mm 0.00 in0.0 mm 0.00 in0.0 mm
11:55 AM 59.4°F15.2°C 46.8°F8.2°C 63% 5.3 mph WSW8.5 kmh WSW 7.6 mph12.2 kmh 30.31 in1026.4 mb 0.00 in0.0 mm 0.00 in0.0 mm 0.00 in0.0 mm
12:00 PM 59.5°F15.3°C 46.5°F8.1°C 62% 4.0 mph WSW6.4 kmh WSW 8.1 mph13.0 kmh 30.30 in1026.1 mb 0.00 in0.0 mm 0.00 in0.0 mm 0.00 in0.0 mm
12:05 PM 59.4°F15.2°C 46.6°F8.1°C 63% 4.2 mph WSW6.8 kmh WSW 8.1 mph13.0 kmh 30.30 in1026.1 mb 0.00 in0.0 mm 0.00 in0.0 mm 0.00 in0.0 mm
12:10 PM 59.5°F15.3°C 46.9°F8.3°C 63% 4.7 mph SW7.6 kmh SW 10.1 mph16.3 kmh 30.30 in1026.1 mb 0.00 in0.0 mm 0.00 in0.0 mm 0.00 in0.0 mm
12:15 PM 59.6°F15.3°C 47.1°F8.4°C 63% 4.8 mph SW7.7 kmh SW 10.7 mph17.2 kmh 30.30 in1026.1 mb 0.00 in0.0 mm 0.00 in0.0 mm 0.00 in0.0 mm
12:20 PM 59.6°F15.3°C 47.2°F8.4°C 63% 5.1 mph SW8.2 kmh SW 10.7 mph17.2 kmh 30.30 in1026.1 mb 0.00 in0.0 mm 0.00 in0.0 mm 0.00 in0.0 mm
12:25 PM 59.5°F15.3°C 47.5°F8.6°C 64% 5.5 mph SW8.9 kmh SW 10.1 mph16.3 kmh 30.29 in1025.7 mb 0.00 in0.0 mm 0.00 in0.0 mm 0.00 in0.0 mm
12:30 PM 59.6°F15.3°C 47.4°F8.6°C 64% 6.5 mph SW10.5 kmh SW 6.9 mph11.1 kmh 30.28 in1025.4 mb 0.00 in0.0 mm 0.00 in0.0 mm 0.00 in0.0 mm
12:35 PM 59.7°F15.4°C 47.6°F8.7°C 64% 6.2 mph SW10.0 kmh SW 10.1 mph16.3 kmh 30.28 in1025.4 mb 0.00 in0.0 mm 0.00 in0.0 mm 0.00 in0.0 mm
12:40 PM 59.9°F15.5°C 47.7°F8.7°C 64% 5.4 mph SW8.7 kmh SW 8.1 mph13.0 kmh 30.28 in1025.4 mb 0.00 in0.0 mm 0.00 in0.0 mm 0.00 in0.0 mm
12:45 PM 59.9°F15.5°C 47.7°F8.7°C 64% 5.1 mph SW8.2 kmh SW 10.7 mph17.2 kmh 30.28 in1025.4 mb 0.00 in0.0 mm 0.00 in0.0 mm 0.00 in0.0 mm
12:50 PM 59.9°F15.5°C 47.7°F8.7°C 64% 4.3 mph SSW6.9 kmh SSW 10.3 mph16.6 kmh 30.28 in1025.4 mb 0.00 in0.0 mm 0.00 in0.0 mm 0.00 in0.0 mm
12:55 PM 59.8°F15.4°C 47.6°F8.7°C 64% 4.5 mph SSW7.2 kmh SSW 10.3 mph16.6 kmh 30.27 in1025.1 mb 0.00 in0.0 mm 0.00 in0.0 mm 0.00 in0.0 mm
01:00 PM 59.7°F15.4°C 47.5°F8.6°C 64% 5.1 mph SW8.2 kmh SW 13.4 mph21.6 kmh 30.27 in1025.1 mb 0.00 in0.0 mm 0.00 in0.0 mm 0.00 in0.0 mm
01:05 PM 59.7°F15.4°C 47.5°F8.6°C 64% 5.6 mph SW9.0 kmh SW 8.7 mph14.0 kmh 30.27 in1025.1 mb 0.00 in0.0 mm 0.00 in0.0 mm 0.00 in0.0 mm
01:10 PM 59.6°F15.3°C 47.5°F8.6°C 64% 6.9 mph SW11.1 kmh SW 11.2 mph18.0 kmh 30.26 in1024.7 mb 0.00 in0.0 mm 0.00 in0.0 mm 0.00 in0.0 mm
01:15 PM 59.2°F15.1°C 47.3°F8.5°C 65% 6.8 mph SW10.9 kmh SW 10.3 mph16.6 kmh 30.26 in1024.7 mb 0.00 in0.0 mm 0.00 in0.0 mm 0.00 in0.0 mm
01:20 PM 58.7°F14.8°C 47.3°F8.5°C 66% 6.5 mph SSW10.5 kmh SSW 11.2 mph18.0 kmh 30.26 in1024.7 mb 0.00 in0.0 mm 0.00 in0.0 mm 0.00 in0.0 mm
01:25 PM 58.9°F14.9°C 47.6°F8.7°C 66% 6.5 mph SSW10.5 kmh SSW 8.5 mph13.7 kmh 30.26 in1024.7 mb 0.00 in0.0 mm 0.00 in0.0 mm 0.00 in0.0 mm
01:30 PM 59.3°F15.2°C 48.0°F8.9°C 66% 6.5 mph SSW10.5 kmh SSW 8.1 mph13.0 kmh 30.25 in1024.4 mb 0.00 in0.0 mm 0.00 in0.0 mm 0.00 in0.0 mm
01:35 PM 59.7°F15.4°C 47.9°F8.8°C 65% 6.0 mph SSW9.7 kmh SSW 9.6 mph15.4 kmh 30.25 in1024.4 mb 0.00 in0.0 mm 0.00 in0.0 mm 0.00 in0.0 mm
01:40 PM 59.6°F15.3°C 47.1°F8.4°C 63% 4.7 mph SW7.6 kmh SW 10.1 mph16.3 kmh 30.25 in1024.4 mb 0.00 in0.0 mm 0.00 in0.0 mm 0.00 in0.0 mm
01:45 PM 59.5°F15.3°C 46.9°F8.3°C 63% 5.4 mph SW8.7 kmh SW 10.3 mph16.6 kmh 30.25 in1024.4 mb 0.00 in0.0 mm 0.00 in0.0 mm 0.00 in0.0 mm
01:50 PM 59.6°F15.3°C 47.0°F8.3°C 63% 7.4 mph SW11.9 kmh SW 11.4 mph18.3 kmh 30.25 in1024.4 mb 0.00 in0.0 mm 0.00 in0.0 mm 0.00 in0.0 mm
01:55 PM 59.5°F15.3°C 46.9°F8.3°C 63% 7.1 mph SW11.4 kmh SW 10.1 mph16.3 kmh 30.24 in1024.0 mb 0.00 in0.0 mm 0.00 in0.0 mm 0.00 in0.0 mm
02:00 PM 59.2°F15.1°C 46.9°F8.3°C 64% 6.5 mph SW10.5 kmh SW 8.5 mph13.7 kmh 30.24 in1024.0 mb 0.00 in0.0 mm 0.00 in0.0 mm 0.00 in0.0 mm
02:05 PM 59.2°F15.1°C 47.2°F8.4°C 64% 6.0 mph SSW9.7 kmh SSW 6.5 mph10.5 kmh 30.24 in1024.0 mb 0.00 in0.0 mm 0.00 in0.0 mm 0.00 in0.0 mm
02:10 PM 59.5°F15.3°C 47.5°F8.6°C 65% 4.7 mph S7.6 kmh S 12.5 mph20.1 kmh 30.23 in1023.7 mb 0.00 in0.0 mm 0.00 in0.0 mm 0.00 in0.0 mm
02:15 PM 59.7°F15.4°C 47.2°F8.4°C 63% 5.2 mph SSW8.4 kmh SSW 12.3 mph19.8 kmh 30.23 in1023.7 mb 0.00 in0.0 mm 0.00 in0.0 mm 0.00 in0.0 mm
02:20 PM 60.0°F15.6°C 47.3°F8.5°C 63% 6.5 mph SW10.5 kmh SW 10.3 mph16.6 kmh 30.23 in1023.7 mb 0.00 in0.0 mm 0.00 in0.0 mm 0.00 in0.0 mm
02:25 PM 60.3°F15.7°C 47.2°F8.4°C 62% 6.3 mph SW10.1 kmh SW 10.3 mph16.6 kmh 30.22 in1023.4 mb 0.00 in0.0 mm 0.00 in0.0 mm 0.00 in0.0 mm
02:28 PM 60.1°F15.6°C 47.4°F8.6°C 63% 5.1 mph SSW8.2 kmh SSW 6.3 mph10.1 kmh 30.22 in1023.4 mb 0.00 in0.0 mm 0.00 in0.0 mm 0.00 in0.0 mm
02:33 PM 59.9°F15.5°C 47.3°F8.5°C 63% 5.1 mph SSW8.2 kmh SSW 8.7 mph14.0 kmh 30.21 in1023.0 mb 0.00 in0.0 mm 0.00 in0.0 mm 0.00 in0.0 mm
02:38 PM 60.1°F15.6°C 47.0°F8.3°C 62% 6.3 mph SSW10.1 kmh SSW 4.3 mph6.9 kmh 30.21 in1023.0 mb 0.00 in0.0 mm 0.00 in0.0 mm 0.00 in0.0 mm
02:43 PM 60.3°F15.7°C 47.2°F8.4°C 62% 6.3 mph SSW10.1 kmh SSW 4.3 mph6.9 kmh 30.21 in1023.0 mb 0.00 in0.0 mm 0.00 in0.0 mm 0.00 in0.0 mm
02:48 PM 60.3°F15.7°C 47.2°F8.4°C 62% 4.0 mph SSW6.4 kmh SSW 7.6 mph12.2 kmh 30.21 in1023.0 mb 0.00 in0.0 mm 0.00 in0.0 mm 0.00 in0.0 mm
02:53 PM 60.3°F15.7°C 47.6°F8.7°C 63% 4.0 mph SSW6.4 kmh SSW 2.9 mph4.7 kmh 30.21 in1023.0 mb 0.00 in0.0 mm 0.00 in0.0 mm 0.00 in0.0 mm
02:58 PM 60.4°F15.8°C 47.4°F8.6°C 62% 5.1 mph SSW8.2 kmh SSW 8.7 mph14.0 kmh 30.21 in1023.0 mb 0.00 in0.0 mm 0.00 in0.0 mm 0.00 in0.0 mm
03:03 PM 60.6°F15.9°C 47.1°F8.4°C 61% 5.1 mph SSW8.2 kmh SSW 8.7 mph14.0 kmh 30.21 in1023.0 mb 0.00 in0.0 mm 0.00 in0.0 mm 0.00 in0.0 mm
03:08 PM 60.4°F15.8°C 46.9°F8.3°C 61% 7.6 mph SSW12.2 kmh SSW 3.6 mph5.8 kmh 30.21 in1023.0 mb 0.00 in0.0 mm 0.00 in0.0 mm 0.00 in0.0 mm
03:13 PM 60.4°F15.8°C 47.4°F8.6°C 62% 7.6 mph SSW12.2 kmh SSW 4.0 mph6.4 kmh 30.21 in1023.0 mb 0.00 in0.0 mm 0.00 in0.0 mm 0.00 in0.0 mm
03:18 PM 60.6°F15.9°C 47.5°F8.6°C 62% 3.6 mph SSW5.8 kmh SSW 5.1 mph8.2 kmh 30.20 in1022.7 mb 0.00 in0.0 mm 0.00 in0.0 mm 0.00 in0.0 mm
03:23 PM 60.8°F16.0°C 47.3°F8.5°C 61% 3.6 mph SSW5.8 kmh SSW 6.5 mph10.5 kmh 30.20 in1022.7 mb 0.00 in0.0 mm 0.00 in0.0 mm 0.00 in0.0 mm
03:28 PM 60.6°F15.9°C 47.1°F8.4°C 61% 6.5 mph SW10.5 kmh SW 7.6 mph12.2 kmh 30.20 in1022.7 mb 0.00 in0.0 mm 0.00 in0.0 mm 0.00 in0.0 mm
03:33 PM 60.6°F15.9°C 47.1°F8.4°C 61% 6.5 mph SW10.5 kmh SW 6.3 mph10.1 kmh 30.20 in1022.7 mb 0.00 in0.0 mm 0.00 in0.0 mm 0.00 in0.0 mm
03:38 PM 60.6°F15.9°C 47.1°F8.4°C 61% 6.9 mph SW11.1 kmh SW 8.1 mph13.0 kmh 30.20 in1022.7 mb 0.00 in0.0 mm 0.00 in0.0 mm 0.00 in0.0 mm
03:43 PM 60.6°F15.9°C 47.1°F8.4°C 61% 6.9 mph SW11.1 kmh SW 7.4 mph11.9 kmh 30.20 in1022.7 mb 0.00 in0.0 mm 0.00 in0.0 mm 0.00 in0.0 mm
03:48 PM 60.3°F15.7°C 46.3°F7.9°C 60% 6.3 mph SSW10.1 kmh SSW 7.6 mph12.2 kmh 30.20 in1022.7 mb 0.00 in0.0 mm 0.00 in0.0 mm 0.00 in0.0 mm
03:53 PM 60.3°F15.7°C 46.8°F8.2°C 61% 6.3 mph SSW10.1 kmh SSW 4.7 mph7.6 kmh 30.20 in1022.7 mb 0.00 in0.0 mm 0.00 in0.0 mm 0.00 in0.0 mm
03:58 PM 60.6°F15.9°C 47.1°F8.4°C 61% 6.5 mph SSW10.5 kmh SSW 8.7 mph14.0 kmh 30.20 in1022.7 mb 0.00 in0.0 mm 0.00 in0.0 mm 0.00 in0.0 mm
04:05 PM 60.6°F15.9°C 47.1°F8.4°C 61% 6.5 mph SSW10.5 kmh SSW 8.7 mph14.0 kmh 30.20 in1022.7 mb 0.00 in0.0 mm 0.00 in0.0 mm 0.00 in0.0 mm
04:10 PM 60.6°F15.9°C 47.1°F8.4°C 61% 6.5 mph SSW10.5 kmh SSW 8.7 mph14.0 kmh 30.20 in1022.7 mb 0.00 in0.0 mm 0.00 in0.0 mm 0.00 in0.0 mm
04:15 PM 60.8°F16.0°C 46.9°F8.3°C 60% 6.2 mph SSW10.0 kmh SSW 10.1 mph16.3 kmh 30.20 in1022.7 mb 0.00 in0.0 mm 0.00 in0.0 mm 0.00 in0.0 mm
04:20 PM 60.7°F15.9°C 47.1°F8.4°C 61% 5.4 mph SSW8.7 kmh SSW 11.9 mph19.2 kmh 30.20 in1022.7 mb 0.00 in0.0 mm 0.00 in0.0 mm 0.00 in0.0 mm
04:25 PM 60.6°F15.9°C 47.1°F8.4°C 61% 5.9 mph SW9.5 kmh SW 10.7 mph17.2 kmh 30.20 in1022.7 mb 0.00 in0.0 mm 0.00 in0.0 mm 0.00 in0.0 mm
04:30 PM 60.4°F15.8°C 47.0°F8.3°C 61% 7.4 mph SW11.9 kmh SW 10.7 mph17.2 kmh 30.20 in1022.7 mb 0.00 in0.0 mm 0.00 in0.0 mm 0.00 in0.0 mm
04:35 PM 60.2°F15.7°C 47.2°F8.4°C 62% 7.4 mph SW11.9 kmh SW 12.3 mph19.8 kmh 30.20 in1022.7 mb 0.00 in0.0 mm 0.00 in0.0 mm 0.00 in0.0 mm
04:40 PM 60.1°F15.6°C 47.0°F8.3°C 62% 7.6 mph SW12.2 kmh SW 10.3 mph16.6 kmh 30.20 in1022.7 mb 0.00 in0.0 mm 0.00 in0.0 mm 0.00 in0.0 mm
04:45 PM 60.1°F15.6°C 47.0°F8.3°C 62% 7.5 mph SW12.1 kmh SW 12.3 mph19.8 kmh 30.20 in1022.7 mb 0.00 in0.0 mm 0.00 in0.0 mm 0.00 in0.0 mm
04:50 PM 59.9°F15.5°C 47.0°F8.3°C 62% 7.4 mph SW11.9 kmh SW 10.7 mph17.2 kmh 30.20 in1022.7 mb 0.00 in0.0 mm 0.00 in0.0 mm 0.00 in0.0 mm
04:55 PM 59.8°F15.4°C 47.2°F8.4°C 63% 7.3 mph SW11.7 kmh SW 7.6 mph12.2 kmh 30.20 in1022.7 mb 0.00 in0.0 mm 0.00 in0.0 mm 0.00 in0.0 mm
05:00 PM 59.7°F15.4°C 47.1°F8.4°C 63% 6.9 mph SSW11.1 kmh SSW 9.6 mph15.4 kmh 30.20 in1022.7 mb 0.00 in0.0 mm 0.00 in0.0 mm 0.00 in0.0 mm
05:05 PM 59.7°F15.4°C 47.1°F8.4°C 63% 6.8 mph SW10.9 kmh SW 8.7 mph14.0 kmh 30.20 in1022.7 mb 0.00 in0.0 mm 0.00 in0.0 mm 0.00 in0.0 mm
05:10 PM 59.6°F15.3°C 47.3°F8.5°C 64% 6.3 mph SW10.1 kmh SW 8.1 mph13.0 kmh 30.20 in1022.7 mb 0.00 in0.0 mm 0.00 in0.0 mm 0.00 in0.0 mm
05:15 PM 59.5°F15.3°C 47.3°F8.5°C 64% 6.0 mph SW9.7 kmh SW 7.6 mph12.2 kmh 30.20 in1022.7 mb 0.00 in0.0 mm 0.00 in0.0 mm 0.00 in0.0 mm
05:20 PM 59.3°F15.2°C 47.3°F8.5°C 64% 5.4 mph SW8.7 kmh SW 6.5 mph10.5 kmh 30.20 in1022.7 mb 0.00 in0.0 mm 0.00 in0.0 mm 0.00 in0.0 mm
05:25 PM 59.0°F15.0°C 47.3°F8.5°C 65% 5.1 mph SW8.2 kmh SW 7.6 mph12.2 kmh 30.20 in1022.7 mb 0.00 in0.0 mm 0.00 in0.0 mm 0.00 in0.0 mm
05:30 PM 58.7°F14.8°C 47.4°F8.6°C 66% 4.3 mph SSW6.9 kmh SSW 6.5 mph10.5 kmh 30.20 in1022.7 mb 0.00 in0.0 mm 0.00 in0.0 mm 0.00 in0.0 mm
05:35 PM 58.4°F14.7°C 47.5°F8.6°C 67% 4.3 mph S6.9 kmh S 5.4 mph8.7 kmh 30.20 in1022.7 mb 0.00 in0.0 mm 0.00 in0.0 mm 0.00 in0.0 mm
05:40 PM 58.2°F14.6°C 47.7°F8.7°C 68% 4.3 mph S6.9 kmh S 6.9 mph11.1 kmh 30.20 in1022.7 mb 0.00 in0.0 mm 0.00 in0.0 mm 0.00 in0.0 mm
05:45 PM 57.9°F14.4°C 48.0°F8.9°C 69% 4.3 mph S6.9 kmh S 6.5 mph10.5 kmh 30.21 in1023.0 mb 0.00 in0.0 mm 0.00 in0.0 mm 0.00 in0.0 mm
05:50 PM 57.7°F14.3°C 48.2°F9.0°C 71% 4.3 mph SSE6.9 kmh SSE 6.3 mph10.1 kmh 30.21 in1023.0 mb 0.00 in0.0 mm 0.00 in0.0 mm 0.00 in0.0 mm
05:55 PM 57.5°F14.2°C 48.3°F9.1°C 71% 4.2 mph SE6.8 kmh SE 4.7 mph7.6 kmh 30.21 in1023.0 mb 0.00 in0.0 mm 0.00 in0.0 mm 0.00 in0.0 mm
06:00 PM 57.3°F14.1°C 48.3°F9.1°C 72% 4.0 mph SE6.4 kmh SE 5.4 mph8.7 kmh 30.21 in1023.0 mb 0.00 in0.0 mm 0.00 in0.0 mm 0.00 in0.0 mm
06:05 PM 57.0°F13.9°C 48.4°F9.1°C 73% 3.8 mph SE6.1 kmh SE 6.9 mph11.1 kmh 30.21 in1023.0 mb 0.00 in0.0 mm 0.00 in0.0 mm 0.00 in0.0 mm
06:10 PM 56.8°F13.8°C 48.5°F9.2°C 74% 3.1 mph SE5.0 kmh SE 6.5 mph10.5 kmh 30.21 in1023.0 mb 0.00 in0.0 mm 0.00 in0.0 mm 0.00 in0.0 mm
06:15 PM 56.7°F13.7°C 48.5°F9.2°C 74% 3.2 mph SE5.1 kmh SE 5.1 mph8.2 kmh 30.21 in1023.0 mb 0.00 in0.0 mm 0.00 in0.0 mm 0.00 in0.0 mm
06:20 PM 56.6°F13.7°C 48.5°F9.2°C 74% 3.6 mph SE5.8 kmh SE 4.7 mph7.6 kmh 30.21 in1023.0 mb 0.00 in0.0 mm 0.00 in0.0 mm 0.00 in0.0 mm
06:25 PM 56.4°F13.6°C 48.6°F9.2°C 75% 3.5 mph SSE5.6 kmh SSE 4.3 mph6.9 kmh 30.21 in1023.0 mb 0.00 in0.0 mm 0.00 in0.0 mm 0.00 in0.0 mm
06:30 PM 56.3°F13.5°C 48.4°F9.1°C 75% 3.1 mph S5.0 kmh S 4.3 mph6.9 kmh 30.21 in1023.0 mb 0.00 in0.0 mm 0.00 in0.0 mm 0.00 in0.0 mm
06:35 PM 56.1°F13.4°C 48.3°F9.1°C 75% 3.1 mph S5.0 kmh S 4.0 mph6.4 kmh 30.21 in1023.0 mb 0.00 in0.0 mm 0.00 in0.0 mm 0.00 in0.0 mm
06:40 PM 56.1°F13.4°C 48.3°F9.1°C 75% 2.9 mph SW4.7 kmh SW 5.1 mph8.2 kmh 30.22 in1023.4 mb 0.00 in0.0 mm 0.00 in0.0 mm 0.00 in0.0 mm
06:45 PM 55.9°F13.3°C 48.5°F9.2°C 76% 3.0 mph SW4.8 kmh SW 5.4 mph8.7 kmh 30.22 in1023.4 mb 0.00 in0.0 mm 0.00 in0.0 mm 0.00 in0.0 mm
06:50 PM 55.9°F13.3°C 48.5°F9.2°C 76% 3.1 mph SW5.0 kmh SW 6.5 mph10.5 kmh 30.22 in1023.4 mb 0.00 in0.0 mm 0.00 in0.0 mm 0.00 in0.0 mm
06:55 PM 55.9°F13.3°C 48.5°F9.2°C 76% 3.4 mph SW5.5 kmh SW 5.4 mph8.7 kmh 30.22 in1023.4 mb 0.00 in0.0 mm 0.00 in0.0 mm 0.00 in0.0 mm
07:00 PM 55.8°F13.2°C 48.3°F9.1°C 76% 4.3 mph SW6.9 kmh SW 6.3 mph10.1 kmh 30.22 in1023.4 mb 0.00 in0.0 mm 0.00 in0.0 mm 0.00 in0.0 mm
07:05 PM 55.8°F13.2°C 48.3°F9.1°C 76% 4.2 mph SW6.8 kmh SW 6.3 mph10.1 kmh 30.22 in1023.4 mb 0.00 in0.0 mm 0.00 in0.0 mm 0.00 in0.0 mm
07:10 PM 55.7°F13.2°C 48.2°F9.0°C 76% 4.0 mph SW6.4 kmh SW 6.3 mph10.1 kmh 30.22 in1023.4 mb 0.00 in0.0 mm 0.00 in0.0 mm 0.00 in0.0 mm
07:15 PM 55.6°F13.1°C 48.1°F8.9°C 76% 4.1 mph SW6.6 kmh SW 6.3 mph10.1 kmh 30.22 in1023.4 mb 0.00 in0.0 mm 0.00 in0.0 mm 0.00 in0.0 mm
07:20 PM 55.5°F13.1°C 48.1°F8.9°C 76% 4.3 mph SW6.9 kmh SW 5.4 mph8.7 kmh 30.22 in1023.4 mb 0.00 in0.0 mm 0.00 in0.0 mm 0.00 in0.0 mm
07:25 PM 55.3°F12.9°C 47.8°F8.8°C 76% 4.1 mph SW6.6 kmh SW 4.7 mph7.6 kmh 30.22 in1023.4 mb 0.00 in0.0 mm 0.00 in0.0 mm 0.00 in0.0 mm
07:30 PM 55.2°F12.9°C 48.1°F8.9°C 77% 3.6 mph WSW5.8 kmh WSW 6.3 mph10.1 kmh 30.22 in1023.4 mb 0.00 in0.0 mm 0.00 in0.0 mm 0.00 in0.0 mm
07:35 PM 55.0°F12.8°C 48.0°F8.9°C 77% 3.7 mph WSW6.0 kmh WSW 5.4 mph8.7 kmh 30.22 in1023.4 mb 0.00 in0.0 mm 0.00 in0.0 mm 0.00 in0.0 mm
07:40 PM 54.9°F12.7°C 47.8°F8.8°C 77% 4.0 mph SW6.4 kmh SW 5.8 mph9.3 kmh 30.23 in1023.7 mb 0.00 in0.0 mm 0.00 in0.0 mm 0.00 in0.0 mm
07:45 PM 54.9°F12.7°C 47.8°F8.8°C 77% 3.9 mph WSW6.3 kmh WSW 4.7 mph7.6 kmh 30.23 in1023.7 mb 0.00 in0.0 mm 0.00 in0.0 mm 0.00 in0.0 mm
07:50 PM 54.7°F12.6°C 47.6°F8.7°C 77% 3.6 mph WSW5.8 kmh WSW 5.1 mph8.2 kmh 30.23 in1023.7 mb 0.00 in0.0 mm 0.00 in0.0 mm 0.00 in0.0 mm
07:55 PM 54.6°F12.6°C 47.5°F8.6°C 77% 3.7 mph WSW6.0 kmh WSW 5.4 mph8.7 kmh 30.23 in1023.7 mb 0.00 in0.0 mm 0.00 in0.0 mm 0.00 in0.0 mm
08:00 PM 54.4°F12.4°C 47.6°F8.7°C 78% 4.0 mph WSW6.4 kmh WSW 7.4 mph11.9 kmh 30.23 in1023.7 mb 0.00 in0.0 mm 0.00 in0.0 mm 0.00 in0.0 mm
08:05 PM 54.3°F12.4°C 47.6°F8.7°C 78% 4.1 mph WSW6.6 kmh WSW 6.3 mph10.1 kmh 30.23 in1023.7 mb 0.00 in0.0 mm 0.00 in0.0 mm 0.00 in0.0 mm
08:08 PM 54.0°F12.2°C 47.6°F8.7°C 79% 4.7 mph WSW7.6 kmh WSW 4.7 mph7.6 kmh 30.23 in1023.7 mb 0.00 in0.0 mm 0.00 in0.0 mm 0.00 in0.0 mm
08:13 PM 54.0°F12.2°C 47.6°F8.7°C 79% 4.7 mph WSW7.6 kmh WSW 6.3 mph10.1 kmh 30.23 in1023.7 mb 0.00 in0.0 mm 0.00 in0.0 mm 0.00 in0.0 mm
08:18 PM 53.8°F12.1°C 47.4°F8.6°C 79% 4.7 mph W7.6 kmh W 4.7 mph7.6 kmh 30.24 in1024.0 mb 0.00 in0.0 mm 0.00 in0.0 mm 0.00 in0.0 mm
08:23 PM 53.6°F12.0°C 47.2°F8.4°C 79% 4.7 mph W7.6 kmh W 5.8 mph9.3 kmh 30.24 in1024.0 mb 0.00 in0.0 mm 0.00 in0.0 mm 0.00 in0.0 mm
08:35 PM 53.5°F11.9°C 47.1°F8.4°C 79% 5.0 mph W8.0 kmh W 12.3 mph19.8 kmh 30.24 in1024.0 mb 0.00 in0.0 mm 0.00 in0.0 mm 0.00 in0.0 mm
08:40 PM 53.4°F11.9°C 47.2°F8.4°C 80% 5.8 mph W9.3 kmh W 12.5 mph20.1 kmh 30.24 in1024.0 mb 0.00 in0.0 mm 0.00 in0.0 mm 0.00 in0.0 mm
08:45 PM 53.2°F11.8°C 47.2°F8.4°C 80% 6.0 mph W9.7 kmh W 13.6 mph21.9 kmh 30.24 in1024.0 mb 0.00 in0.0 mm 0.00 in0.0 mm 0.00 in0.0 mm
08:50 PM 53.2°F11.8°C 47.2°F8.4°C 80% 6.5 mph WSW10.5 kmh WSW 8.5 mph13.7 kmh 30.24 in1024.0 mb 0.00 in0.0 mm 0.00 in0.0 mm 0.00 in0.0 mm
08:55 PM 53.1°F11.7°C 47.2°F8.4°C 80% 6.7 mph WSW10.8 kmh WSW 9.2 mph14.8 kmh 30.23 in1023.7 mb 0.00 in0.0 mm 0.00 in0.0 mm 0.00 in0.0 mm
09:00 PM 53.1°F11.7°C 47.2°F8.4°C 80% 7.4 mph WSW11.9 kmh WSW 10.1 mph16.3 kmh 30.23 in1023.7 mb 0.00 in0.0 mm 0.00 in0.0 mm 0.00 in0.0 mm
09:05 PM 53.1°F11.7°C 47.1°F8.4°C 80% 7.4 mph WSW11.9 kmh WSW 9.6 mph15.4 kmh 30.23 in1023.7 mb 0.00 in0.0 mm 0.00 in0.0 mm 0.00 in0.0 mm
09:10 PM 52.9°F11.6°C 47.2°F8.4°C 81% 7.4 mph WSW11.9 kmh WSW 8.1 mph13.0 kmh 30.23 in1023.7 mb 0.00 in0.0 mm 0.00 in0.0 mm 0.00 in0.0 mm
09:15 PM 52.9°F11.6°C 47.2°F8.4°C 81% 7.0 mph WSW11.3 kmh WSW 12.5 mph20.1 kmh 30.23 in1023.7 mb 0.00 in0.0 mm 0.00 in0.0 mm 0.00 in0.0 mm
09:20 PM 52.9°F11.6°C 46.9°F8.3°C 80% 5.8 mph WSW9.3 kmh WSW 13.6 mph21.9 kmh 30.23 in1023.7 mb 0.00 in0.0 mm 0.00 in0.0 mm 0.00 in0.0 mm
09:25 PM 52.6°F11.4°C 46.6°F8.1°C 80% 6.2 mph WSW10.0 kmh WSW 9.6 mph15.4 kmh 30.23 in1023.7 mb 0.00 in0.0 mm 0.00 in0.0 mm 0.00 in0.0 mm
09:30 PM 52.4°F11.3°C 46.5°F8.1°C 80% 7.4 mph WSW11.9 kmh WSW 8.5 mph13.7 kmh 30.23 in1023.7 mb 0.00 in0.0 mm 0.00 in0.0 mm 0.00 in0.0 mm
09:35 PM 52.3°F11.3°C 46.3°F7.9°C 80% 7.3 mph WSW11.7 kmh WSW 8.7 mph14.0 kmh 30.23 in1023.7 mb 0.00 in0.0 mm 0.00 in0.0 mm 0.00 in0.0 mm
09:40 PM 52.2°F11.2°C 46.2°F7.9°C 80% 6.9 mph WSW11.1 kmh WSW 7.4 mph11.9 kmh 30.23 in1023.7 mb 0.00 in0.0 mm 0.00 in0.0 mm 0.00 in0.0 mm
09:45 PM 52.0°F11.1°C 46.0°F7.8°C 80% 6.6 mph WSW10.6 kmh WSW 8.5 mph13.7 kmh 30.23 in1023.7 mb 0.00 in0.0 mm 0.00 in0.0 mm 0.00 in0.0 mm
09:50 PM 52.0°F11.1°C 46.0°F7.8°C 80% 5.8 mph WSW9.3 kmh WSW 14.8 mph23.8 kmh 30.23 in1023.7 mb 0.00 in0.0 mm 0.00 in0.0 mm 0.00 in0.0 mm
09:55 PM 52.0°F11.1°C 46.0°F7.8°C 80% 6.3 mph W10.1 kmh W 14.5 mph23.3 kmh 30.23 in1023.7 mb 0.00 in0.0 mm 0.00 in0.0 mm 0.00 in0.0 mm
10:00 PM 51.8°F11.0°C 45.8°F7.7°C 80% 7.6 mph W12.2 kmh W 15.7 mph25.3 kmh 30.23 in1023.7 mb 0.00 in0.0 mm 0.00 in0.0 mm 0.00 in0.0 mm
10:05 PM 51.6°F10.9°C 45.9°F7.7°C 81% 8.0 mph W12.9 kmh W 17.4 mph28.0 kmh 30.23 in1023.7 mb 0.00 in0.0 mm 0.00 in0.0 mm 0.00 in0.0 mm
10:10 PM 51.6°F10.9°C 45.9°F7.7°C 81% 9.2 mph WSW14.8 kmh WSW 14.5 mph23.3 kmh 30.23 in1023.7 mb 0.00 in0.0 mm 0.00 in0.0 mm 0.00 in0.0 mm
10:15 PM 51.5°F10.8°C 45.6°F7.6°C 80% 8.9 mph WSW14.3 kmh WSW 9.2 mph14.8 kmh 30.22 in1023.4 mb 0.00 in0.0 mm 0.00 in0.0 mm 0.00 in0.0 mm
10:20 PM 51.3°F10.7°C 45.4°F7.4°C 80% 8.1 mph WSW13.0 kmh WSW 9.2 mph14.8 kmh 30.22 in1023.4 mb 0.00 in0.0 mm 0.00 in0.0 mm 0.00 in0.0 mm
10:25 PM 51.2°F10.7°C 45.2°F7.3°C 80% 8.1 mph WSW13.0 kmh WSW 10.3 mph16.6 kmh 30.22 in1023.4 mb 0.00 in0.0 mm 0.00 in0.0 mm 0.00 in0.0 mm
10:30 PM 51.0°F10.6°C 45.0°F7.2°C 80% 8.1 mph WSW13.0 kmh WSW 11.9 mph19.2 kmh 30.22 in1023.4 mb 0.00 in0.0 mm 0.00 in0.0 mm 0.00 in0.0 mm
10:35 PM 50.7°F10.4°C 44.7°F7.1°C 80% 8.2 mph WSW13.2 kmh WSW 11.2 mph18.0 kmh 30.22 in1023.4 mb 0.00 in0.0 mm 0.00 in0.0 mm 0.00 in0.0 mm
10:40 PM 50.5°F10.3°C 44.7°F7.1°C 80% 8.7 mph WSW14.0 kmh WSW 11.2 mph18.0 kmh 30.23 in1023.7 mb 0.00 in0.0 mm 0.00 in0.0 mm 0.00 in0.0 mm
10:45 PM 50.4°F10.2°C 44.8°F7.1°C 81% 8.8 mph WSW14.2 kmh WSW 10.7 mph17.2 kmh 30.23 in1023.7 mb 0.00 in0.0 mm 0.00 in0.0 mm 0.00 in0.0 mm
10:50 PM 50.5°F10.3°C 44.9°F7.2°C 81% 9.2 mph WSW14.8 kmh WSW 9.2 mph14.8 kmh 30.23 in1023.7 mb 0.00 in0.0 mm 0.00 in0.0 mm 0.00 in0.0 mm
10:55 PM 50.4°F10.2°C 44.8°F7.1°C 81% 8.8 mph WSW14.2 kmh WSW 9.2 mph14.8 kmh 30.22 in1023.4 mb 0.00 in0.0 mm 0.00 in0.0 mm 0.00 in0.0 mm
11:00 PM 50.3°F10.2°C 44.7°F7.1°C 81% 7.6 mph WSW12.2 kmh WSW 10.1 mph16.3 kmh 30.22 in1023.4 mb 0.00 in0.0 mm 0.00 in0.0 mm 0.00 in0.0 mm
11:05 PM 50.2°F10.1°C 44.6°F7.0°C 81% 7.7 mph WSW12.4 kmh WSW 10.1 mph16.3 kmh 30.22 in1023.4 mb 0.00 in0.0 mm 0.00 in0.0 mm 0.00 in0.0 mm
11:10 PM 50.0°F10.0°C 44.4°F6.9°C 81% 8.1 mph WSW13.0 kmh WSW 8.5 mph13.7 kmh 30.22 in1023.4 mb 0.00 in0.0 mm 0.00 in0.0 mm 0.00 in0.0 mm
11:15 PM 49.9°F9.9°C 44.3°F6.8°C 81% 7.6 mph WSW12.2 kmh WSW 8.7 mph14.0 kmh 30.22 in1023.4 mb 0.00 in0.0 mm 0.00 in0.0 mm 0.00 in0.0 mm
11:20 PM 49.8°F9.9°C 44.2°F6.8°C 81% 6.5 mph WSW10.5 kmh WSW 10.1 mph16.3 kmh 30.22 in1023.4 mb 0.00 in0.0 mm 0.00 in0.0 mm 0.00 in0.0 mm
11:25 PM 49.8°F9.9°C 44.2°F6.8°C 81% 6.5 mph WSW10.5 kmh WSW 7.6 mph12.2 kmh 30.22 in1023.4 mb 0.00 in0.0 mm 0.00 in0.0 mm 0.00 in0.0 mm
11:30 PM 49.8°F9.9°C 44.2°F6.8°C 81% 6.5 mph WSW10.5 kmh WSW 7.6 mph12.2 kmh 30.21 in1023.0 mb 0.00 in0.0 mm 0.00 in0.0 mm 0.00 in0.0 mm
11:35 PM 49.8°F9.9°C 44.2°F6.8°C 81% 6.3 mph WSW10.1 kmh WSW 6.9 mph11.1 kmh 30.21 in1023.0 mb 0.00 in0.0 mm 0.00 in0.0 mm 0.00 in0.0 mm
11:40 PM 49.7°F9.8°C 44.1°F6.7°C 81% 5.8 mph WSW9.3 kmh WSW 7.6 mph12.2 kmh 30.21 in1023.0 mb 0.00 in0.0 mm 0.00 in0.0 mm 0.00 in0.0 mm
11:45 PM 49.6°F9.8°C 44.1°F6.7°C 81% 5.9 mph WSW9.5 kmh WSW 7.6 mph12.2 kmh 30.21 in1023.0 mb 0.00 in0.0 mm 0.00 in0.0 mm 0.00 in0.0 mm
11:50 PM 49.5°F9.7°C 44.0°F6.7°C 81% 6.3 mph WSW10.1 kmh WSW 7.6 mph12.2 kmh 30.21 in1023.0 mb 0.00 in0.0 mm 0.00 in0.0 mm 0.00 in0.0 mm
11:55 PM 49.5°F9.7°C 43.9°F6.6°C 81% 6.3 mph WSW10.1 kmh WSW 7.6 mph12.2 kmh 30.21 in1023.0 mb 0.00 in0.0 mm 0.00 in0.0 mm 0.00 in0.0 mm